Time;durP1;ratioP1;P1;durP2;ratioP2;P2;SDS_P1;SDS_P2;PMS_P1;PMS_P2;Temp;Humidity;BMP_temperature;BMP_pressure;BME280_temperature;BME280_humidity;BME280_pressure;Samples;Min_cycle;Max_cycle;Signal;HPM_P1;HPM_P2
2023/11/25 00:01:06;;;;;;;1030.13;951.03;;;2.20;99.90;;;;;;6155839;23;20909;-76
2023/11/25 00:03:34;;;;;;;1031.20;952.00;;;2.30;99.90;;;;;;6156023;23;20379;-75
2023/11/25 00:06:01;;;;;;;1034.33;955.33;;;2.40;99.90;;;;;;6156320;23;20724;-75
2023/11/25 00:08:28;;;;;;;1031.23;952.10;;;2.40;99.90;;;;;;6155905;23;20890;-75
2023/11/25 00:10:56;;;;;;;1020.27;941.40;;;2.50;99.90;;;;;;6156096;23;20545;-75
2023/11/25 00:13:25;;;;;;;1019.23;940.47;;;2.60;99.90;;;;;;6156280;23;20421;-75
2023/11/25 00:15:52;;;;;;;1006.83;928.83;;;2.60;99.90;;;;;;6156266;23;20772;-76
2023/11/25 00:18:19;;;;;;;1015.23;936.13;;;2.80;99.90;;;;;;6155876;23;20410;-76
2023/11/25 00:20:46;;;;;;;1011.43;931.53;;;2.90;99.90;;;;;;6156111;23;20407;-78
2023/11/25 00:23:13;;;;;;;1006.53;928.03;;;3.00;99.90;;;;;;6156228;23;20410;-79
2023/11/25 00:25:40;;;;;;;1000.53;921.83;;;3.00;99.90;;;;;;6155579;23;20410;-79
2023/11/25 00:28:09;;;;;;;998.97;920.37;;;3.00;99.90;;;;;;6156033;23;20432;-79
2023/11/25 00:30:38;;;;;;;1000.60;920.97;;;2.90;99.90;;;;;;6155628;23;20442;-78
2023/11/25 00:33:05;;;;;;;995.87;915.67;;;2.80;99.90;;;;;;6156144;23;20418;-78
2023/11/25 00:35:32;;;;;;;1001.77;921.60;;;2.60;99.90;;;;;;6155997;23;20530;-78
2023/11/25 00:37:59;;;;;;;1001.10;921.00;;;2.50;99.90;;;;;;6155768;23;20410;-78
2023/11/25 00:40:27;;;;;;;1005.30;924.80;;;2.40;99.90;;;;;;6155858;23;20473;-78
2023/11/25 00:42:54;;;;;;;1003.20;922.20;;;2.40;99.90;;;;;;6156086;23;20410;-78
2023/11/25 00:45:25;;;;;;;1004.40;923.80;;;2.40;99.90;;;;;;6155713;23;20604;-77
2023/11/25 00:47:56;;;;;;;1002.43;921.83;;;2.30;99.90;;;;;;6156048;23;20779;-77
2023/11/25 00:50:24;;;;;;;1001.53;921.43;;;2.40;99.90;;;;;;6155771;23;20495;-77
2023/11/25 00:52:51;;;;;;;991.63;912.10;;;2.30;99.90;;;;;;6155617;23;20417;-77
2023/11/25 00:55:18;;;;;;;995.80;915.60;;;2.30;99.90;;;;;;6155183;23;20920;-77
2023/11/25 00:57:46;;;;;;;993.77;913.57;;;2.20;99.90;;;;;;6155558;23;20449;-77
2023/11/25 01:00:15;;;;;;;995.07;914.77;;;2.20;99.90;;;;;;6155534;23;20417;-77
2023/11/25 01:02:43;;;;;;;997.07;916.77;;;2.30;99.90;;;;;;6155845;23;20410;-76
2023/11/25 01:05:11;;;;;;;995.93;915.43;;;2.30;99.90;;;;;;6155372;23;20418;-76
2023/11/25 01:07:38;;;;;;;990.90;910.60;;;2.30;99.90;;;;;;6155326;23;20414;-76
2023/11/25 01:10:06;;;;;;;988.70;908.17;;;2.20;99.90;;;;;;6155642;23;20411;-76
2023/11/25 01:12:35;;;;;;;993.17;912.13;;;2.20;99.90;;;;;;6155652;23;20469;-76
2023/11/25 01:15:03;;;;;;;996.67;915.57;;;2.10;99.90;;;;;;6155739;23;20417;-76
2023/11/25 01:17:31;;;;;;;1004.40;923.47;;;2.10;99.90;;;;;;6155393;23;20496;-76
2023/11/25 01:19:59;;;;;;;1000.57;919.70;;;2.10;99.90;;;;;;6155009;23;20421;-76
2023/11/25 01:22:27;;;;;;;996.40;915.57;;;2.10;99.90;;;;;;6155136;23;20441;-76
2023/11/25 01:24:54;;;;;;;1000.10;918.80;;;2.10;99.90;;;;;;6155624;23;20777;-76
2023/11/25 01:27:23;;;;;;;1008.00;926.50;;;2.10;99.90;;;;;;6155518;23;20468;-76
2023/11/25 01:29:50;;;;;;;1004.70;923.10;;;2.10;99.90;;;;;;6155405;23;20410;-76
2023/11/25 01:32:17;;;;;;;1003.63;922.27;;;2.10;99.90;;;;;;6155084;23;20442;-76
2023/11/25 01:34:43;;;;;;;998.33;916.80;;;2.10;99.90;;;;;;6154938;23;20492;-76
2023/11/25 01:37:15;;;;;;;1000.80;919.10;;;2.10;99.90;;;;;;6154957;23;20922;-76
2023/11/25 01:39:43;;;;;;;1002.83;920.93;;;2.10;99.90;;;;;;6155013;23;20437;-76
2023/11/25 01:42:10;;;;;;;1007.80;925.60;;;2.10;99.90;;;;;;6155137;23;20445;-76
2023/11/25 01:44:37;;;;;;;1005.37;923.27;;;2.10;99.90;;;;;;6155375;23;20410;-76
2023/11/25 01:47:04;;;;;;;999.20;917.40;;;2.10;99.90;;;;;;6155451;23;20469;-76
2023/11/25 01:49:31;;;;;;;1002.43;920.77;;;2.20;99.90;;;;;;6154751;23;20414;-76
2023/11/25 01:51:58;;;;;;;992.23;910.73;;;2.30;99.90;;;;;;6154961;23;20474;-76
2023/11/25 01:54:26;;;;;;;992.37;910.70;;;2.20;99.90;;;;;;6155249;23;20410;-76
2023/11/25 01:56:58;;;;;;;990.93;908.83;;;2.30;99.90;;;;;;6154922;23;20394;-76
2023/11/25 01:59:27;;;;;;;986.13;904.33;;;2.30;99.90;;;;;;6155159;23;20481;-75
2023/11/25 02:01:55;;;;;;;988.53;905.93;;;2.30;99.90;;;;;;6155301;23;20406;-76
2023/11/25 02:04:22;;;;;;;990.20;907.10;;;2.30;99.90;;;;;;6155261;23;20432;-75
2023/11/25 02:06:49;;;;;;;993.23;909.43;;;2.30;99.90;;;;;;6154927;23;20409;-75
2023/11/25 02:09:17;;;;;;;995.87;911.60;;;2.20;99.90;;;;;;6155048;23;20878;-76
2023/11/25 02:12:02;;;;;;;1000.80;915.70;;;2.20;99.90;;;;;;6155238;23;20769;-75
2023/11/25 02:14:29;;;;;;;1006.33;920.50;;;2.20;99.90;;;;;;6155145;23;20436;-75
2023/11/25 02:16:57;;;;;;;1006.63;920.50;;;2.20;99.90;;;;;;6155137;23;20472;-75
2023/11/25 02:19:25;;;;;;;1007.93;921.43;;;2.10;99.90;;;;;;6154934;23;20476;-75
2023/11/25 02:21:53;;;;;;;1010.87;924.17;;;2.10;99.90;;;;;;6155177;23;20410;-75
2023/11/25 02:24:26;;;;;;;1010.70;923.80;;;2.10;99.90;;;;;;6154887;23;20410;-75
2023/11/25 02:26:58;;;;;;;1006.97;920.07;;;2.10;99.90;;;;;;6154978;23;20406;-75
2023/11/25 02:29:25;;;;;;;1006.73;919.53;;;2.10;99.90;;;;;;6154739;23;20401;-75
2023/11/25 02:31:52;;;;;;;1012.80;925.40;;;2.10;99.90;;;;;;6155010;23;20438;-75
2023/11/25 02:34:20;;;;;;;1011.80;924.30;;;2.20;99.90;;;;;;6155075;23;20790;-75
2023/11/25 02:36:48;;;;;;;1016.30;928.57;;;2.20;99.90;;;;;;6154706;23;20418;-75
2023/11/25 02:39:17;;;;;;;1007.03;919.33;;;2.20;99.90;;;;;;6154599;23;20465;-75
2023/11/25 02:41:48;;;;;;;1011.87;924.17;;;2.30;99.90;;;;;;6155092;23;20410;-75
2023/11/25 02:44:15;;;;;;;1010.30;922.70;;;2.20;99.90;;;;;;6155160;23;20401;-75
2023/11/25 02:46:45;;;;;;;1011.20;923.73;;;2.20;99.90;;;;;;6154632;23;20899;-75
2023/11/25 02:49:12;;;;;;;1012.03;924.63;;;2.10;99.90;;;;;;6156481;23;20409;-75
2023/11/25 02:51:39;;;;;;;1012.50;924.80;;;2.10;99.90;;;;;;6156980;23;20528;-75
2023/11/25 02:54:06;;;;;;;1011.27;923.57;;;2.20;99.90;;;;;;6156634;23;20421;-75
2023/11/25 02:56:35;;;;;;;1010.80;922.80;;;2.20;99.90;;;;;;6127122;23;20471;-75
2023/11/25 02:59:03;;;;;;;1007.93;920.03;;;2.30;99.90;;;;;;6127493;23;20445;-75
2023/11/25 03:01:30;;;;;;;1007.03;918.83;;;2.30;99.90;;;;;;6127327;23;20768;-75
2023/11/25 03:04:01;;;;;;;1007.83;919.87;;;2.30;99.90;;;;;;6127045;23;20867;-75
2023/11/25 03:06:30;;;;;;;1009.40;921.20;;;2.30;99.90;;;;;;6127331;23;20441;-75
2023/11/25 03:08:58;;;;;;;1007.07;918.87;;;2.40;99.90;;;;;;6127404;23;20430;-74
2023/11/25 03:11:28;;;;;;;1009.67;921.50;;;2.40;99.90;;;;;;6126821;23;20440;-74
2023/11/25 03:13:55;;;;;;;1018.43;929.43;;;2.40;99.90;;;;;;6127421;23;20493;-74
2023/11/25 03:16:24;;;;;;;1023.00;933.90;;;2.40;99.90;;;;;;6127285;23;20438;-74
2023/11/25 03:18:52;;;;;;;1014.77;925.70;;;2.40;99.90;;;;;;6126946;23;20892;-74
2023/11/25 03:21:20;;;;;;;1021.93;932.63;;;2.50;99.90;;;;;;6127107;23;20411;-74
2023/11/25 03:23:47;;;;;;;1025.23;935.93;;;2.40;99.90;;;;;;6126956;23;20414;-74
2023/11/25 03:26:15;;;;;;;1022.60;933.40;;;2.40;99.90;;;;;;6127113;23;20414;-74
2023/11/25 03:28:42;;;;;;;1013.47;924.37;;;2.50;99.90;;;;;;6126892;23;20410;-74
2023/11/25 03:31:09;;;;;;;1015.70;926.40;;;2.60;99.90;;;;;;6126528;23;20422;-74
2023/11/25 03:33:38;;;;;;;1020.53;930.87;;;2.70;99.90;;;;;;6126177;23;20495;-74
2023/11/25 03:36:05;;;;;;;1014.73;925.23;;;2.60;99.90;;;;;;6127030;23;20489;-73
2023/11/25 03:38:33;;;;;;;1005.90;916.40;;;2.80;99.90;;;;;;6126718;23;20931;-73
2023/11/25 03:41:01;;;;;;;1010.00;920.60;;;2.80;99.90;;;;;;6126827;23;20421;-73
2023/11/25 03:43:28;;;;;;;1006.90;917.10;;;2.90;99.90;;;;;;6127104;23;20407;-74
2023/11/25 03:45:55;;;;;;;1020.57;930.00;;;2.80;99.90;;;;;;6126647;23;20498;-74
2023/11/25 03:48:22;;;;;;;1023.77;932.90;;;2.90;99.90;;;;;;6126493;23;20963;-74
2023/11/25 03:50:50;;;;;;;1020.53;929.70;;;2.80;99.90;;;;;;6126531;23;20494;-74
2023/11/25 03:53:18;;;;;;;1021.23;929.33;;;2.80;99.90;;;;;;6126985;23;20523;-74
2023/11/25 03:55:45;;;;;;;1034.10;942.10;;;2.90;99.90;;;;;;6146483;23;20419;-73
2023/11/25 03:58:12;;;;;;;1025.70;934.17;;;2.90;99.90;;;;;;6156443;23;20414;-73
2023/11/25 04:00:38;;;;;;;1017.20;925.60;;;3.00;99.90;;;;;;6155852;23;20414;-73
2023/11/25 04:03:05;;;;;;;1021.37;930.17;;;3.00;99.90;;;;;;6156023;23;20408;-73
2023/11/25 04:05:32;;;;;;;1015.33;924.03;;;3.00;99.90;;;;;;6156336;23;20442;-73
2023/11/25 04:08:00;;;;;;;1012.23;920.70;;;3.00;99.90;;;;;;6156024;23;20413;-73
2023/11/25 04:10:27;;;;;;;1008.37;916.77;;;3.10;99.90;;;;;;6156233;23;20412;-73
2023/11/25 04:12:56;;;;;;;1014.27;922.17;;;3.10;99.90;;;;;;6156009;23;20472;-73
2023/11/25 04:15:23;;;;;;;1025.13;932.43;;;3.10;99.90;;;;;;6155779;23;20410;-73
2023/11/25 04:17:50;;;;;;;1020.57;927.47;;;3.10;99.90;;;;;;6156270;23;20410;-73
2023/11/25 04:20:24;;;;;;;1017.33;924.43;;;3.10;99.90;;;;;;6165751;23;20800;-73
2023/11/25 04:22:51;;;;;;;1017.77;924.87;;;3.10;99.90;;;;;;6156275;23;20392;-73
2023/11/25 04:25:20;;;;;;;1014.30;921.37;;;3.10;99.90;;;;;;6156464;23;20410;-73
2023/11/25 04:27:49;;;;;;;1019.93;927.13;;;3.10;99.90;;;;;;6156070;23;20490;-73
2023/11/25 04:30:17;;;;;;;1019.67;927.27;;;3.10;99.90;;;;;;6155981;23;20416;-73
2023/11/25 04:32:45;;;;;;;1029.90;936.50;;;3.10;99.90;;;;;;6155677;23;20466;-73
2023/11/25 04:35:13;;;;;;;1028.67;934.97;;;3.00;99.90;;;;;;6156053;23;20414;-73
2023/11/25 04:37:44;;;;;;;1037.07;943.10;;;2.90;99.90;;;;;;6155761;23;20418;-73
2023/11/25 04:40:12;;;;;;;1033.13;939.93;;;2.80;99.90;;;;;;6155552;23;20394;-73
2023/11/25 04:42:41;;;;;;;1028.40;935.70;;;2.80;99.90;;;;;;6156052;23;20421;-73
2023/11/25 04:45:15;;;;;;;1025.57;933.40;;;2.80;99.90;;;;;;6155388;23;20446;-73
2023/11/25 04:47:43;;;;;;;1024.20;931.93;;;2.80;99.90;;;;;;6155273;23;20789;-73
2023/11/25 04:50:10;;;;;;;1023.27;931.10;;;2.80;99.90;;;;;;6155207;23;20895;-73
2023/11/25 04:52:37;;;;;;;1029.20;937.00;;;2.80;99.90;;;;;;6155602;23;20439;-73
2023/11/25 04:55:06;;;;;;;1025.70;933.70;;;2.70;99.90;;;;;;6155368;23;20920;-73
2023/11/25 04:57:33;;;;;;;1029.10;937.03;;;2.70;99.90;;;;;;6156037;23;20476;-73
2023/11/25 05:00:02;;;;;;;1035.70;944.10;;;2.80;99.90;;;;;;6155613;23;20411;-73
2023/11/25 05:02:29;;;;;;;1029.83;939.20;;;3.00;99.90;;;;;;6155898;23;20790;-73
2023/11/25 05:04:56;;;;;;;1031.47;940.80;;;3.10;99.90;;;;;;6155384;23;20491;-73
2023/11/25 05:07:23;;;;;;;1028.47;937.87;;;3.10;99.90;;;;;;6155352;23;20494;-73
2023/11/25 05:09:50;;;;;;;1026.93;937.40;;;3.10;99.90;;;;;;6155259;23;20493;-73
2023/11/25 05:12:19;;;;;;;1030.53;940.63;;;3.20;99.90;;;;;;6155449;23;20502;-73
2023/11/25 05:14:46;;;;;;;1035.17;943.93;;;3.20;99.90;;;;;;6155277;23;20969;-73
2023/11/25 05:17:14;;;;;;;1040.30;948.93;;;3.20;99.90;;;;;;6155758;23;20414;-73
2023/11/25 05:19:41;;;;;;;1037.97;946.80;;;3.20;99.90;;;;;;6155148;23;20493;-73
2023/11/25 05:22:08;;;;;;;1036.40;945.10;;;3.20;99.90;;;;;;6155246;23;20410;-73
2023/11/25 05:24:35;;;;;;;1040.63;948.77;;;3.20;99.90;;;;;;6155282;23;20963;-73
2023/11/25 05:27:02;;;;;;;1044.87;952.00;;;3.20;99.90;;;;;;6155744;23;20615;-73
2023/11/25 05:29:30;;;;;;;1045.83;953.20;;;3.30;99.90;;;;;;6154965;23;20415;-72
2023/11/25 05:31:57;;;;;;;1051.57;958.97;;;3.30;99.90;;;;;;6155422;23;20417;-73
2023/11/25 05:34:26;;;;;;;1053.87;961.20;;;3.30;99.90;;;;;;6155422;23;20424;-73
2023/11/25 05:36:52;;;;;;;1056.80;963.90;;;3.40;99.90;;;;;;6155488;23;20801;-73
2023/11/25 05:39:20;;;;;;;1059.47;966.80;;;3.40;99.90;;;;;;6154906;23;20411;-73
2023/11/25 05:41:48;;;;;;;1065.07;972.07;;;3.40;99.90;;;;;;6155012;23;20448;-73
2023/11/25 05:44:15;;;;;;;1074.00;981.00;;;3.40;99.90;;;;;;6154403;23;20415;-73
2023/11/25 05:46:42;;;;;;;1071.73;978.33;;;3.40;99.90;;;;;;6153701;23;20450;-73
2023/11/25 05:49:09;;;;;;;1076.53;982.90;;;3.40;99.90;;;;;;6154021;23;20464;-73
2023/11/25 05:51:42;;;;;;;1084.27;990.77;;;3.40;99.90;;;;;;6154962;23;20908;-73
2023/11/25 05:54:12;;;;;;;1081.70;988.90;;;3.50;99.90;;;;;;6154180;23;20826;-73
2023/11/25 05:56:40;;;;;;;1087.63;994.53;;;3.50;99.90;;;;;;6155179;23;20776;-73
2023/11/25 05:59:07;;;;;;;1085.07;992.10;;;3.50;99.90;;;;;;6154611;23;20418;-73
2023/11/25 06:01:35;;;;;;;1090.30;997.30;;;3.60;99.90;;;;;;6154896;23;20411;-73
2023/11/25 06:04:01;;;;;;;1091.73;999.00;;;3.60;99.90;;;;;;6154722;23;20413;-73
2023/11/25 06:06:28;;;;;;;1094.37;999.90;;;3.70;99.90;;;;;;6155140;23;20417;-73
2023/11/25 06:08:56;;;;;;;1118.03;999.90;;;3.70;99.90;;;;;;6155193;23;20497;-73
2023/11/25 06:11:26;;;;;;;1112.60;999.90;;;3.70;99.90;;;;;;6154384;23;20901;-73
2023/11/25 06:13:53;;;;;;;1109.13;999.90;;;3.80;99.90;;;;;;6154409;23;20943;-73
2023/11/25 06:16:20;;;;;;;1101.87;999.90;;;3.80;99.90;;;;;;6154993;23;20411;-72
2023/11/25 06:18:48;;;;;;;1105.33;999.90;;;3.90;99.90;;;;;;6154707;23;20498;-72
2023/11/25 06:21:15;;;;;;;1092.87;999.90;;;3.90;99.90;;;;;;6155088;23;20495;-73
2023/11/25 06:23:43;;;;;;;1094.20;999.90;;;3.90;99.90;;;;;;6154399;23;20415;-73
2023/11/25 06:26:11;;;;;;;1078.37;998.73;;;4.00;99.90;;;;;;6154953;23;20714;-72
2023/11/25 06:28:41;;;;;;;1059.37;984.27;;;4.00;99.90;;;;;;6154834;23;20492;-72
2023/11/25 06:31:08;;;;;;;1057.83;985.10;;;4.00;99.90;;;;;;6154992;23;20558;-73
2023/11/25 06:33:35;;;;;;;1053.80;981.77;;;4.00;99.90;;;;;;6155181;23;20474;-73
2023/11/25 06:36:02;;;;;;;1046.67;977.13;;;4.00;99.90;;;;;;6155279;23;20423;-73
2023/11/25 06:38:30;;;;;;;1026.23;959.90;;;4.00;99.90;;;;;;6154713;23;20968;-73
2023/11/25 06:40:56;;;;;;;1015.17;950.40;;;4.00;99.90;;;;;;6154746;23;20495;-73
2023/11/25 06:43:25;;;;;;;986.90;924.70;;;4.00;99.90;;;;;;6154615;23;20449;-73
2023/11/25 06:45:53;;;;;;;1011.37;946.67;;;4.00;99.90;;;;;;6154620;23;20426;-73
2023/11/25 06:48:20;;;;;;;1024.17;959.73;;;3.90;99.90;;;;;;6155043;23;20448;-74
2023/11/25 06:50:47;;;;;;;1029.40;963.80;;;3.90;99.90;;;;;;6154506;23;20412;-74
2023/11/25 06:53:14;;;;;;;1042.37;974.17;;;3.80;99.90;;;;;;6154651;23;20435;-74
2023/11/25 06:55:41;;;;;;;1022.70;953.70;;;3.80;99.90;;;;;;6154199;23;20841;-75
2023/11/25 06:58:10;;;;;;;1026.43;953.37;;;3.80;99.90;;;;;;6154732;23;20412;-76
2023/11/25 07:00:39;;;;;;;1028.83;954.87;;;3.70;99.90;;;;;;6154889;23;20410;-75
2023/11/25 07:03:07;;;;;;;1043.27;967.30;;;3.70;99.90;;;;;;6155010;23;20825;-76
2023/11/25 07:05:34;;;;;;;1048.90;972.30;;;3.70;99.90;;;;;;6154447;23;20414;-76
2023/11/25 07:08:02;;;;;;;1064.80;984.30;;;3.60;99.90;;;;;;6154281;23;20455;-76
2023/11/25 07:10:34;;;;;;;1051.47;972.70;;;3.70;99.90;;;;;;6154652;23;20407;-76
2023/11/25 07:13:01;;;;;;;1044.80;967.77;;;3.70;99.90;;;;;;6154358;23;20427;-76
2023/11/25 07:15:29;;;;;;;1054.73;976.67;;;3.60;99.90;;;;;;6154854;23;20820;-76
2023/11/25 07:17:57;;;;;;;1041.43;965.53;;;3.60;99.90;;;;;;6154956;23;20455;-76
2023/11/25 07:20:25;;;;;;;1034.60;959.47;;;3.50;99.90;;;;;;6154880;23;20443;-76
2023/11/25 07:22:51;;;;;;;1032.73;957.20;;;3.50;99.90;;;;;;6154393;23;20465;-76
2023/11/25 07:25:18;;;;;;;1036.27;961.17;;;3.50;99.90;;;;;;6154398;23;20496;-76
2023/11/25 07:27:47;;;;;;;1042.17;963.57;;;3.50;99.90;;;;;;6154859;23;20410;-75
2023/11/25 07:30:15;;;;;;;1034.60;957.57;;;3.50;99.90;;;;;;6154968;23;20738;-76
2023/11/25 07:32:43;;;;;;;1039.67;959.40;;;3.50;99.90;;;;;;6154610;23;20838;-75
2023/11/25 07:35:12;;;;;;;1024.27;946.47;;;3.50;99.90;;;;;;6156165;23;20887;-75
2023/11/25 07:37:39;;;;;;;1028.47;949.80;;;3.50;99.90;;;;;;6156663;23;20735;-75
2023/11/25 07:40:12;;;;;;;1053.53;969.27;;;3.40;99.90;;;;;;6156103;23;20442;-75
2023/11/25 07:42:39;;;;;;;1062.73;974.23;;;3.40;99.90;;;;;;6156292;23;20422;-75
2023/11/25 07:45:09;;;;;;;1068.37;980.23;;;3.40;99.90;;;;;;6156564;23;20498;-75
2023/11/25 07:47:36;;;;;;;1064.80;974.10;;;3.50;99.90;;;;;;6156633;23;20421;-75
2023/11/25 07:50:04;;;;;;;1059.30;970.60;;;3.60;99.90;;;;;;6156098;23;20497;-75
2023/11/25 07:52:32;;;;;;;1060.33;970.33;;;3.80;99.90;;;;;;6155457;23;20417;-75
2023/11/25 07:54:59;;;;;;;1074.87;985.83;;;3.80;99.90;;;;;;6154649;23;20926;-75
2023/11/25 07:57:26;;;;;;;1080.07;990.10;;;3.90;99.90;;;;;;6155987;23;20418;-75
2023/11/25 07:59:53;;;;;;;1072.13;983.70;;;3.90;99.90;;;;;;6155986;23;20497;-74
2023/11/25 08:02:21;;;;;;;1092.47;999.90;;;3.90;99.90;;;;;;6155951;23;20492;-74
2023/11/25 08:04:48;;;;;;;1080.93;994.40;;;4.00;99.90;;;;;;6155854;23;20409;-74
2023/11/25 08:07:15;;;;;;;1092.67;999.90;;;4.10;99.90;;;;;;6156576;23;20412;-74
2023/11/25 08:09:44;;;;;;;1079.10;991.70;;;4.10;99.90;;;;;;6156468;23;20416;-74
2023/11/25 08:12:11;;;;;;;1065.30;979.30;;;4.20;99.90;;;;;;6156198;23;20440;-74
2023/11/25 08:14:38;;;;;;;1046.83;962.63;;;4.20;99.90;;;;;;6156278;23;20451;-74
2023/11/25 08:17:05;;;;;;;1047.80;964.03;;;4.30;99.90;;;;;;6155884;23;20444;-74
2023/11/25 08:19:32;;;;;;;1025.17;945.57;;;4.30;99.90;;;;;;6155862;23;20943;-73
2023/11/25 08:21:59;;;;;;;978.17;902.37;;;4.30;99.90;;;;;;6156436;23;20746;-73
2023/11/25 08:24:26;;;;;;;917.70;841.50;;;4.30;99.90;;;;;;6155914;23;20904;-73
2023/11/25 08:26:55;;;;;;;900.07;826.67;;;4.30;99.90;;;;;;6156120;23;20409;-73
2023/11/25 08:29:22;;;;;;;923.30;857.90;;;4.30;99.90;;;;;;6154713;23;20444;-73
2023/11/25 08:31:49;;;;;;;906.83;846.50;;;4.30;99.90;;;;;;6155915;23;20621;-73
2023/11/25 08:34:16;;;;;;;902.65;847.47;;;4.30;99.90;;;;;;6155797;23;20500;-73
2023/11/25 08:36:52;;;;;;;853.30;805.60;;;4.30;99.90;;;;;;6153975;23;20470;-73
2023/11/25 08:39:21;;;;;;;782.28;745.00;;;4.40;99.90;;;;;;6151335;23;20413;-73
2023/11/25 08:41:48;;;;;;;780.83;744.73;;;4.40;99.90;;;;;;6154376;23;20183;-73
2023/11/25 08:44:16;;;;;;;773.50;737.80;;;4.40;99.90;;;;;;6156046;23;20409;-73
2023/11/25 08:46:44;;;;;;;782.83;746.90;;;4.40;99.90;;;;;;6155331;23;20413;-73
2023/11/25 08:49:12;;;;;;;816.83;777.47;;;4.50;99.90;;;;;;6156141;23;20412;-75
2023/11/25 08:51:40;;;;;;;834.40;792.00;;;4.50;99.90;;;;;;6165410;23;20510;-76
2023/11/25 08:54:08;;;;;;;847.10;804.07;;;4.50;99.90;;;;;;6155856;23;20522;-77
2023/11/25 08:56:36;;;;;;;841.70;799.33;;;4.50;99.90;;;;;;6155464;23;20410;-76
2023/11/25 08:59:03;;;;;;;864.43;817.53;;;4.50;99.90;;;;;;6155585;23;20959;-77
2023/11/25 09:01:39;;;;;;;863.00;814.50;;;4.60;99.90;;;;;;6155097;23;20452;-77
2023/11/25 09:04:07;;;;;;;874.27;824.73;;;4.60;99.90;;;;;;6155733;23;20391;-76
2023/11/25 09:06:36;;;;;;;875.90;825.90;;;4.70;99.90;;;;;;6155657;23;20448;-76
2023/11/25 09:09:04;;;;;;;858.80;810.20;;;4.90;99.90;;;;;;6155297;23;20412;-76
2023/11/25 09:11:31;;;;;;;855.43;807.20;;;4.90;99.90;;;;;;6155286;23;20417;-76
2023/11/25 09:13:58;;;;;;;856.70;809.60;;;5.00;99.90;;;;;;6155694;23;20443;-76
2023/11/25 09:16:27;;;;;;;852.77;806.67;;;4.90;99.90;;;;;;6155179;23;20414;-75
2023/11/25 09:18:56;;;;;;;861.73;815.10;;;4.90;99.90;;;;;;6155605;23;20452;-76
2023/11/25 09:21:23;;;;;;;870.00;822.17;;;4.90;99.90;;;;;;6155713;23;20444;-76
2023/11/25 09:23:50;;;;;;;860.97;814.57;;;4.90;99.90;;;;;;6155754;23;20801;-75
2023/11/25 09:26:16;;;;;;;877.13;828.57;;;4.90;99.90;;;;;;6155845;23;20492;-75
2023/11/25 09:28:43;;;;;;;863.67;817.30;;;4.90;99.90;;;;;;6155455;23;20922;-75
2023/11/25 09:31:10;;;;;;;848.73;803.97;;;5.00;99.90;;;;;;6155550;23;20410;-75
2023/11/25 09:33:37;;;;;;;826.40;785.17;;;5.10;99.90;;;;;;6155397;23;20528;-75
2023/11/25 09:36:06;;;;;;;835.40;793.17;;;5.10;99.90;;;;;;6155205;23;20442;-75
2023/11/25 09:38:33;;;;;;;844.97;801.30;;;5.10;99.90;;;;;;6155358;23;20493;-74
2023/11/25 09:41:00;;;;;;;828.47;787.70;;;5.10;99.90;;;;;;6155535;23;20409;-75
2023/11/25 09:43:29;;;;;;;797.93;759.73;;;5.10;99.90;;;;;;6155727;23;20415;-75
2023/11/25 09:45:57;;;;;;;824.77;784.00;;;5.10;99.90;;;;;;6155379;23;20436;-74
2023/11/25 09:48:24;;;;;;;841.30;799.90;;;5.30;99.90;;;;;;6155275;23;20911;-74
2023/11/25 09:50:53;;;;;;;827.43;786.93;;;5.30;99.90;;;;;;6155343;23;20449;-74
2023/11/25 09:53:26;;;;;;;817.60;778.00;;;5.40;99.90;;;;;;6155640;23;20449;-73
2023/11/25 09:56:05;;;;;;;820.90;780.30;;;5.60;99.90;;;;;;6154948;23;20472;-75
2023/11/25 09:58:34;;;;;;;812.67;773.23;;;5.90;99.90;;;;;;6155431;23;20482;-74
2023/11/25 10:01:05;;;;;;;749.57;715.77;;;6.00;99.90;;;;;;6155074;23;20488;-74
2023/11/25 10:03:34;;;;;;;576.20;554.50;;;5.90;99.90;;;;;;6155096;23;20854;-74
2023/11/25 10:06:01;;;;;;;526.73;507.63;;;5.70;99.90;;;;;;6155361;23;20791;-74
2023/11/25 10:08:29;;;;;;;519.17;500.40;;;5.80;99.90;;;;;;6155324;23;20413;-74
2023/11/25 10:11:01;;;;;;;640.73;616.03;;;5.80;99.90;;;;;;6154887;23;20414;-73
2023/11/25 10:13:33;;;;;;;476.87;459.83;;;5.90;99.90;;;;;;6155176;23;20413;-73
2023/11/25 10:16:01;;;;;;;485.13;468.43;;;5.80;99.90;;;;;;6155127;23;20427;-73
2023/11/25 10:18:28;;;;;;;408.67;394.27;;;5.80;99.90;;;;;;6155100;23;20432;-73
2023/11/25 10:20:58;;;;;;;548.60;529.10;;;5.70;99.90;;;;;;6155292;23;20410;-73
2023/11/25 10:23:25;;;;;;;516.23;498.10;;;5.60;99.90;;;;;;6155185;23;20444;-74
2023/11/25 10:25:54;;;;;;;597.53;575.40;;;5.60;99.90;;;;;;6154981;23;20442;-73
2023/11/25 10:28:25;;;;;;;658.57;633.13;;;5.60;99.90;;;;;;6155067;23;20410;-73
2023/11/25 10:30:56;;;;;;;681.07;654.13;;;5.70;99.90;;;;;;6155087;23;20456;-73
2023/11/25 10:33:24;;;;;;;732.20;701.43;;;5.80;99.90;;;;;;6154725;23;20416;-73
2023/11/25 10:35:52;;;;;;;721.23;691.70;;;5.90;99.90;;;;;;6155188;23;20414;-73
2023/11/25 10:38:21;;;;;;;655.50;629.57;;;6.00;99.90;;;;;;6155123;23;20413;-73
2023/11/25 10:40:49;;;;;;;636.03;610.97;;;6.10;99.90;;;;;;6155036;23;20409;-73
2023/11/25 10:43:18;;;;;;;642.47;617.57;;;6.20;99.90;;;;;;6155125;23;20416;-73
2023/11/25 10:45:46;;;;;;;506.87;488.83;;;6.40;99.90;;;;;;6164488;23;20418;-73
2023/11/25 10:48:13;;;;;;;316.87;306.77;;;6.60;99.90;;;;;;6155219;23;20418;-73
2023/11/25 10:50:42;;;;;;;422.60;408.60;;;6.70;99.90;;;;;;6154948;23;20416;-73
2023/11/25 10:53:13;;;;;;;82.13;78.33;;;7.00;99.90;;;;;;6155109;23;20501;-73
2023/11/25 10:55:42;;;;;;;153.20;146.70;;;6.90;99.90;;;;;;6154816;23;20443;-73
2023/11/25 10:58:11;;;;;;;151.63;146.03;;;6.80;99.90;;;;;;6154381;23;20917;-73
2023/11/25 11:00:39;;;;;;;89.27;85.70;;;6.90;99.90;;;;;;6155094;23;20472;-73
2023/11/25 11:03:09;;;;;;;59.07;55.93;;;6.80;99.90;;;;;;6155023;23;20416;-73
2023/11/25 11:05:45;;;;;;;27.97;25.83;;;6.70;99.90;;;;;;6154587;23;20425;-73
2023/11/25 11:08:18;;;;;;;42.27;40.13;;;6.70;99.90;;;;;;6154875;23;20932;-73
2023/11/25 11:10:53;;;;;;;63.60;60.97;;;7.00;99.90;;;;;;6157027;23;20401;-73
2023/11/25 11:13:27;;;;;;;17.83;16.35;;;7.20;99.90;;;;;;6156198;23;20487;-73
2023/11/25 11:16:00;;;;;;;9.02;5.10;;;7.10;99.90;;;;;;6155605;23;20455;-74
2023/11/25 11:18:35;;;;;;;10.40;5.87;;;7.30;99.90;;;;;;6156760;23;20223;-74
2023/11/25 11:21:03;;;;;;;11.03;6.97;;;7.70;99.90;;;;;;6156867;23;20394;-74
2023/11/25 11:23:32;;;;;;;10.07;4.80;;;7.90;99.90;;;;;;6155130;23;20420;-74
2023/11/25 11:26:08;;;;;;;7.93;4.00;;;8.00;99.90;;;;;;6156027;23;20410;-73
2023/11/25 11:28:43;;;;;;;9.83;5.03;;;8.10;99.90;;;;;;6155983;23;20466;-74
2023/11/25 11:31:40;;;;;;;9.87;4.20;;;8.10;99.90;;;;;;6156713;23;20401;-73
2023/11/25 11:34:08;;;;;;;6.90;3.77;;;7.90;99.90;;;;;;6112981;23;20938;-72
2023/11/25 11:36:36;;;;;;;6.97;2.87;;;7.40;99.90;;;;;;6156793;23;20419;-72
2023/11/25 11:39:03;;;;;;;8.20;3.50;;;7.30;99.90;;;;;;6156112;23;20495;-73
2023/11/25 11:41:30;;;;;;;12.27;4.90;;;7.30;99.90;;;;;;6156555;23;20445;-73
2023/11/25 11:44:04;;;;;;;9.00;5.53;;;7.40;99.90;;;;;;6156700;23;20786;-73
2023/11/25 11:46:38;;;;;;;17.00;3.33;;;7.50;99.90;;;;;;6156597;23;20396;-72
2023/11/25 11:49:07;;;;;;;16.23;3.67;;;7.50;99.90;;;;;;6156738;23;20405;-73
2023/11/25 11:51:34;;;;;;;5.53;3.90;;;7.50;99.90;;;;;;6156036;23;20410;-72
2023/11/25 11:54:26;;;;;;;7.23;3.70;;;7.40;99.90;;;;;;6156462;23;20440;-72
2023/11/25 11:57:00;;;;;;;13.07;5.43;;;7.20;99.90;;;;;;6156925;23;20404;-72
2023/11/25 11:59:58;;;;;;;9.53;6.87;;;7.10;99.90;;;;;;6156615;23;20411;-73
2023/11/25 12:02:29;;;;;;;9.97;9.00;;;6.80;99.90;;;;;;6156827;23;20393;-73
2023/11/25 12:04:58;;;;;;;18.83;17.73;;;6.80;99.90;;;;;;6156757;23;20389;-73
2023/11/25 12:07:26;;;;;;;10.80;9.60;;;7.00;99.90;;;;;;6156744;23;20491;-73
2023/11/25 12:09:53;;;;;;;18.13;16.83;;;7.00;99.90;;;;;;6156218;23;20408;-73
2023/11/25 12:12:21;;;;;;;10.10;9.10;;;7.00;99.90;;;;;;6156225;23;20774;-73
2023/11/25 12:14:48;;;;;;;13.53;11.97;;;6.80;99.90;;;;;;6156235;23;20811;-72
2023/11/25 12:17:15;;;;;;;14.10;12.70;;;6.80;99.90;;;;;;6156306;23;20413;-73
2023/11/25 12:19:44;;;;;;;20.23;18.63;;;6.80;99.90;;;;;;6155312;23;20490;-73
2023/11/25 12:22:11;;;;;;;23.80;22.20;;;6.90;99.90;;;;;;6155570;23;20410;-72